Hlavní strana
METAR-TAF:

METAR-TAF

Letiště :

Letiště Sofie

Sofie, Bulharsko

zeměpisná šířka: 42-39N, zeměpisná délka: 023-23E, výška: 586 m

Aktuální stav počasí

Zpráva byla vytvořena před 14 minutami, v 21:30 UTC
Západní vítr 11 kt
Teplota 7°C
Vlhkost vzduchu 76%
Tlak 1021 hPa
Viditelnost 10 km a více
Žádná oblačnost pod 1500 m, nevyskytují se cumulonimby.

METAR: LBSF 182130Z 28011KT CAVOK 07/03 Q1021 NOSIG

Čas: 23:44 (21:44 UTC)

Předpověď počasí

Zpráva byla vytvořena před 4 hodinami a 44 minutami, v 17:00 UTC
Předpověď platná od 18 v 18 UTC do 19 v 18 UTC
Západoseverozápadní vítr 14 kt
Viditelnost 10 km a více
Žádná oblačnost pod 1500 m, nevyskytují se cumulonimby.
Dočasný
od 18 v 18 UTC do 18 v 20 UTC
Západoseverozápadní vítr 16 kt s nárazy do 28 kt
Změna
od 18 v 22 UTC do 18 v 24 UTC
Západní vítr 8 kt
Oblačno až skoro zataženo ve výšce 3000 ft

TAF: LBSF 181700Z 1818/1918 29014KT CAVOK TEMPO 1818/1820 29016G28KT BECMG 1822/1824 27008KT BKN030

Stav a předpovědi počasí z více než 4 000 letišť (zprávy METAR a TAF).

Červené a žluté tečky na mapě představují dostupné meteorologické stanice.

Když kurzor umístíte na tečku, zobrazí se název stanice.

Pak kliknutím zobrazíte stav a předpověď počasí.

Chcete-li změnit mapu, kliknutím na zelené tlačítko se znaménkem +mapu přiblížíte, kliknutím na zelené tlačítko se znaménkem – mapu oddálíte a kliknutím na zelené šipky přejdete na sousední mapy.


METAR-TAF: